West Acres, Pennsylvania
Current Conditions -  °F | °C
As of 6:53 AM on Monday 26 Jan 2015 (Local Time) from KSEG Reporting Station
Light Snow Light Snow  
Wind Chill: -12°   Ceiling: 2700
Heat Index: -7°   Visibility: 9mi
Dew Point: -9°   Wind: 7mph
Humidity: 81%   Direction: 30°NNE
Pressure: 29.9"   Gusts: NA
Location:  40.9885°N, 76.9787°W
Report Text: KSEG 261153Z AUTO 03006KT 9SM -SN OVC027 M07/M09 A2990 RMK AO2 SLP130 P0001 60011 70011 T10671094 11050 21072 56007
Loading
Personal Weather Stations






























Interactive Weather Map New forecast layout! Learn more

10-Day Weather Forecast

Advertisements
Track Severe Weather on mobile